Time;durP1;ratioP1;P1;durP2;ratioP2;P2;SDS_P1;SDS_P2;PMS_P1;PMS_P2;Temp;Humidity;BMP_temperature;BMP_pressure;BME280_temperature;BME280_humidity;BME280_pressure;Samples;Min_cycle;Max_cycle;Signal;HPM_P1;HPM_P2
2022/09/06 00:00:45;;;;;;;5.93;2.20;;;13.90;99.90;;;;;;5063865;28;20711;-87
2022/09/06 00:03:35;;;;;;;2.75;2.08;;;13.90;99.90;;;;;;5064065;28;20217;-88
2022/09/06 00:06:24;;;;;;;4.00;2.13;;;14.00;99.90;;;;;;5064587;28;20310;-87
2022/09/06 00:09:12;;;;;;;5.10;2.40;;;13.90;99.90;;;;;;5062857;28;20228;-87
2022/09/06 00:12:01;;;;;;;5.75;1.90;;;13.90;99.90;;;;;;5064989;28;20227;-86
2022/09/06 00:14:50;;;;;;;5.13;2.30;;;13.80;99.90;;;;;;5088421;28;20709;-85
2022/09/06 00:17:38;;;;;;;6.40;2.13;;;13.90;99.90;;;;;;5074325;28;20246;-85
2022/09/06 00:20:29;;;;;;;4.82;2.10;;;13.70;99.90;;;;;;5056492;28;20224;-85
2022/09/06 00:23:18;;;;;;;3.22;2.28;;;13.70;99.90;;;;;;5060168;28;20232;-85
2022/09/06 00:26:06;;;;;;;4.13;2.20;;;13.70;99.90;;;;;;5077236;28;20305;-85
2022/09/06 00:28:55;;;;;;;3.15;2.28;;;13.70;99.90;;;;;;5063248;28;20365;-86
2022/09/06 00:31:44;;;;;;;2.78;1.80;;;13.70;99.90;;;;;;5062888;28;20239;-85
2022/09/06 00:34:32;;;;;;;2.80;1.98;;;13.80;99.90;;;;;;5059496;28;20223;-85
2022/09/06 00:37:22;;;;;;;2.65;1.73;;;13.70;99.90;;;;;;5056093;28;20231;-85
2022/09/06 00:40:11;;;;;;;4.80;1.83;;;13.70;99.90;;;;;;5059928;28;20565;-85
2022/09/06 00:43:00;;;;;;;3.92;2.00;;;13.60;99.90;;;;;;5069518;28;20875;-86
2022/09/06 00:45:48;;;;;;;3.03;2.10;;;13.50;99.90;;;;;;5059780;28;20266;-85
2022/09/06 00:48:39;;;;;;;5.03;2.08;;;13.50;99.90;;;;;;5071002;28;20226;-85
2022/09/06 00:51:29;;;;;;;3.67;2.08;;;13.30;99.90;;;;;;5053976;28;20313;-85
2022/09/06 00:54:19;;;;;;;4.63;2.30;;;13.40;99.90;;;;;;5058714;28;20224;-85
2022/09/06 00:57:08;;;;;;;4.78;2.22;;;13.40;99.90;;;;;;5061359;28;20230;-84
2022/09/06 00:59:58;;;;;;;3.70;1.58;;;13.40;99.90;;;;;;5056752;28;20220;-85
2022/09/06 01:02:47;;;;;;;4.15;2.00;;;13.40;99.90;;;;;;5060310;28;20228;-85
2022/09/06 01:05:44;;;;;;;5.90;2.17;;;13.40;99.90;;;;;;5064136;28;20224;-85
2022/09/06 01:08:52;;;;;;;3.25;1.90;;;13.20;99.90;;;;;;5071400;28;20228;-86
2022/09/06 01:12:04;;;;;;;3.38;1.98;;;13.30;99.90;;;;;;5064265;28;20706;-86
2022/09/06 01:15:05;;;;;;;4.78;2.05;;;13.40;99.90;;;;;;5059319;28;20221;-85
2022/09/06 01:18:00;;;;;;;3.67;2.15;;;13.30;99.90;;;;;;5076795;28;20228;-85
2022/09/06 01:21:04;;;;;;;8.15;2.15;;;13.40;99.90;;;;;;5091430;28;20737;-87
2022/09/06 01:24:19;;;;;;;2.80;2.08;;;13.40;99.90;;;;;;5060675;28;20228;-86
2022/09/06 01:27:43;;;;;;;4.85;1.70;;;13.30;99.90;;;;;;5062593;28;20729;-86
2022/09/06 01:30:37;;;;;;;9.15;2.30;;;13.20;99.90;;;;;;5061351;28;20204;-87
2022/09/06 01:33:34;;;;;;;5.60;2.30;;;13.20;99.90;;;;;;5061685;28;20323;-85
2022/09/06 01:36:26;;;;;;;3.85;2.15;;;13.20;99.90;;;;;;5078880;28;20221;-87
2022/09/06 01:39:23;;;;;;;4.85;2.17;;;13.20;99.90;;;;;;5105304;28;20306;-87
2022/09/06 01:42:17;;;;;;;6.63;2.45;;;13.20;99.90;;;;;;5078315;28;20827;-85
2022/09/06 01:45:09;;;;;;;5.05;2.55;;;13.20;99.90;;;;;;5076147;28;20216;-88
2022/09/06 01:48:07;;;;;;;5.78;2.20;;;13.10;99.90;;;;;;5062836;28;20216;-87
2022/09/06 01:51:09;;;;;;;4.70;2.20;;;13.20;99.90;;;;;;5065110;28;20223;-86
2022/09/06 01:54:15;;;;;;;6.88;2.20;;;13.20;99.90;;;;;;5088397;27;20220;-86
2022/09/06 01:57:15;;;;;;;5.70;2.30;;;13.10;99.90;;;;;;5086765;28;20227;-87
2022/09/06 02:00:09;;;;;;;4.40;2.00;;;13.10;99.90;;;;;;5085170;28;20702;-86
2022/09/06 02:03:08;;;;;;;4.47;1.98;;;13.00;99.90;;;;;;5058614;28;20228;-87
2022/09/06 02:06:03;;;;;;;5.43;2.38;;;13.00;99.90;;;;;;5069139;28;20311;-87
2022/09/06 02:09:00;;;;;;;4.65;2.05;;;13.10;99.90;;;;;;5076013;28;20216;-87
2022/09/06 02:11:53;;;;;;;3.95;2.00;;;12.90;99.90;;;;;;5074382;28;20225;-86
2022/09/06 02:14:46;;;;;;;6.45;2.25;;;13.00;99.90;;;;;;5060419;28;20217;-87
2022/09/06 02:17:41;;;;;;;5.07;2.17;;;13.10;99.90;;;;;;5057641;28;20220;-86
2022/09/06 02:20:34;;;;;;;6.25;2.20;;;13.10;99.90;;;;;;5070210;28;20240;-87
2022/09/06 02:23:27;;;;;;;3.85;2.13;;;13.00;99.90;;;;;;5061301;28;20249;-87
2022/09/06 02:26:18;;;;;;;5.38;2.08;;;12.90;99.90;;;;;;5058898;28;20716;-86
2022/09/06 02:29:07;;;;;;;3.40;2.10;;;13.00;99.90;;;;;;5057575;28;20224;-87
2022/09/06 02:32:00;;;;;;;5.25;2.20;;;12.90;99.90;;;;;;5070609;28;20212;-86
2022/09/06 02:34:49;;;;;;;4.20;2.35;;;12.80;99.90;;;;;;5059846;28;20690;-88
2022/09/06 02:37:41;;;;;;;2.67;2.00;;;12.90;99.90;;;;;;5087185;28;20293;-88
2022/09/06 02:40:30;;;;;;;5.43;2.10;;;12.90;99.90;;;;;;5061482;28;20227;-87
2022/09/06 02:43:19;;;;;;;3.65;2.67;;;12.90;99.90;;;;;;5087206;28;20296;-88
2022/09/06 02:46:07;;;;;;;4.18;2.38;;;12.90;99.90;;;;;;5085615;28;20223;-89
2022/09/06 02:48:58;;;;;;;5.00;2.20;;;12.90;99.90;;;;;;5060596;28;20224;-86
2022/09/06 02:51:46;;;;;;;4.15;2.10;;;12.80;99.90;;;;;;5083370;28;20228;-88
2022/09/06 02:54:36;;;;;;;3.38;2.15;;;12.80;99.90;;;;;;5063991;28;20216;-87
2022/09/06 02:57:25;;;;;;;4.43;2.45;;;12.90;99.90;;;;;;5078394;28;20336;-86
2022/09/06 03:00:14;;;;;;;5.13;2.20;;;12.80;99.90;;;;;;5063955;28;20217;-87
2022/09/06 03:03:04;;;;;;;4.50;2.00;;;12.80;99.90;;;;;;5088687;28;20319;-87
2022/09/06 03:05:54;;;;;;;3.45;1.80;;;12.80;99.90;;;;;;5056961;28;20410;-85
2022/09/06 03:08:42;;;;;;;2.63;2.03;;;12.80;99.90;;;;;;5062729;28;20654;-86
2022/09/06 03:11:33;;;;;;;5.05;2.10;;;12.70;99.90;;;;;;5084261;28;20267;-86
2022/09/06 03:14:21;;;;;;;3.10;2.30;;;12.70;99.90;;;;;;5074802;28;20239;-84
2022/09/06 03:17:10;;;;;;;2.25;1.85;;;12.60;99.90;;;;;;5079776;28;20220;-86
2022/09/06 03:19:58;;;;;;;5.00;2.30;;;12.60;99.90;;;;;;5092481;28;20216;-85
2022/09/06 03:22:47;;;;;;;3.72;2.33;;;12.60;99.90;;;;;;5065033;28;20362;-86
2022/09/06 03:25:35;;;;;;;5.63;1.90;;;12.70;99.90;;;;;;5065829;28;21221;-86
2022/09/06 03:28:26;;;;;;;3.80;1.95;;;12.70;99.90;;;;;;5095368;28;20215;-84
2022/09/06 03:31:15;;;;;;;4.35;2.13;;;12.70;99.90;;;;;;5066816;28;20299;-84
2022/09/06 03:34:04;;;;;;;4.80;2.08;;;12.70;99.90;;;;;;5063895;28;20943;-84
2022/09/06 03:36:58;;;;;;;2.30;1.83;;;12.80;99.90;;;;;;5063921;28;20231;-85
2022/09/06 03:39:46;;;;;;;3.22;2.55;;;12.80;99.90;;;;;;5083769;28;20231;-89
2022/09/06 03:42:35;;;;;;;4.85;2.08;;;12.70;99.90;;;;;;5059944;28;20221;-85
2022/09/06 03:45:25;;;;;;;4.28;2.15;;;12.70;99.90;;;;;;5061001;28;20836;-86
2022/09/06 03:48:14;;;;;;;3.50;2.08;;;12.80;99.90;;;;;;5058924;28;20713;-86
2022/09/06 03:51:02;;;;;;;3.17;2.28;;;12.70;99.90;;;;;;5062484;28;20754;-86
2022/09/06 03:53:51;;;;;;;2.53;2.05;;;12.90;99.90;;;;;;5070620;28;20223;-85
2022/09/06 03:56:39;;;;;;;3.28;2.13;;;12.90;99.90;;;;;;5071709;28;20224;-85
2022/09/06 03:59:28;;;;;;;4.03;2.28;;;12.90;99.90;;;;;;5071805;28;20224;-86
2022/09/06 04:02:18;;;;;;;4.85;2.10;;;12.90;99.90;;;;;;5078475;28;20213;-87
2022/09/06 04:05:08;;;;;;;5.90;2.70;;;12.90;99.90;;;;;;5079053;28;20856;-86
2022/09/06 04:07:56;;;;;;;5.82;1.98;;;12.70;99.90;;;;;;5078393;28;20799;-86
2022/09/06 04:10:45;;;;;;;4.40;2.00;;;12.80;99.90;;;;;;5081270;28;20227;-86
2022/09/06 04:13:34;;;;;;;7.28;2.33;;;12.80;99.90;;;;;;5088877;28;20311;-85
2022/09/06 04:16:22;;;;;;;5.72;2.35;;;12.80;99.90;;;;;;5079718;28;20212;-86
2022/09/06 04:19:12;;;;;;;5.03;2.47;;;12.90;99.90;;;;;;5105893;28;20216;-85
2022/09/06 04:22:01;;;;;;;4.13;2.20;;;12.80;99.90;;;;;;5096317;27;20229;-85
2022/09/06 04:24:50;;;;;;;7.10;2.40;;;12.80;99.90;;;;;;5088983;28;20222;-85
2022/09/06 04:27:38;;;;;;;4.55;2.10;;;12.90;99.90;;;;;;5087788;28;20292;-84
2022/09/06 04:30:27;;;;;;;3.38;2.28;;;12.70;99.90;;;;;;5082567;28;20212;-84
2022/09/06 04:33:16;;;;;;;3.05;2.00;;;12.80;99.90;;;;;;5077374;28;20225;-86
2022/09/06 04:36:08;;;;;;;4.18;2.42;;;12.80;99.90;;;;;;5060978;28;20711;-84
2022/09/06 04:38:56;;;;;;;7.95;2.30;;;12.80;99.90;;;;;;5060712;28;20226;-86
2022/09/06 04:41:44;;;;;;;4.57;1.98;;;12.90;99.90;;;;;;5092741;28;20275;-85
2022/09/06 04:44:33;;;;;;;5.30;2.53;;;12.90;99.90;;;;;;5095582;28;20603;-84
2022/09/06 04:47:22;;;;;;;4.93;2.63;;;13.00;99.90;;;;;;5060466;28;20224;-86
2022/09/06 04:50:10;;;;;;;6.05;2.25;;;13.00;99.90;;;;;;5060506;28;20220;-87
2022/09/06 04:53:01;;;;;;;4.50;2.25;;;13.20;99.90;;;;;;5063234;28;20220;-87
2022/09/06 04:55:49;;;;;;;7.57;2.22;;;13.30;99.90;;;;;;5086154;28;20244;-87
2022/09/06 04:58:38;;;;;;;5.50;2.17;;;13.30;99.90;;;;;;5064198;28;20213;-87
2022/09/06 05:01:26;;;;;;;5.85;2.45;;;13.40;99.90;;;;;;5066644;28;20220;-87
2022/09/06 05:04:15;;;;;;;5.75;2.63;;;13.50;99.90;;;;;;5068809;28;20242;-86
2022/09/06 05:07:05;;;;;;;5.05;2.47;;;13.30;99.90;;;;;;5064265;28;20239;-87
2022/09/06 05:09:55;;;;;;;7.35;2.47;;;13.30;99.90;;;;;;5090165;28;20227;-87
2022/09/06 05:12:44;;;;;;;6.80;2.40;;;13.40;99.90;;;;;;5070758;28;20629;-87
2022/09/06 05:15:32;;;;;;;7.97;2.75;;;13.30;99.90;;;;;;5063819;28;20243;-86
2022/09/06 05:18:21;;;;;;;8.23;2.53;;;13.40;99.90;;;;;;5059383;28;20616;-85
2022/09/06 05:21:09;;;;;;;6.20;2.35;;;13.40;99.90;;;;;;5064092;28;21585;-85
2022/09/06 05:23:58;;;;;;;4.63;2.53;;;13.50;99.90;;;;;;5060670;28;20220;-85
2022/09/06 05:26:48;;;;;;;8.52;2.58;;;13.60;99.90;;;;;;5063638;28;20249;-87
2022/09/06 05:29:36;;;;;;;4.18;2.13;;;13.50;99.90;;;;;;5057655;28;20243;-87
2022/09/06 05:32:25;;;;;;;6.43;2.83;;;13.60;99.90;;;;;;5087001;27;20877;-86
2022/09/06 05:35:13;;;;;;;5.10;2.60;;;13.60;99.90;;;;;;5085732;28;20231;-86
2022/09/06 05:38:03;;;;;;;7.35;2.28;;;13.60;99.90;;;;;;5072081;28;20220;-85
2022/09/06 05:40:51;;;;;;;5.88;2.15;;;13.70;99.90;;;;;;5059148;28;20358;-86
2022/09/06 05:43:41;;;;;;;4.57;2.15;;;13.90;99.90;;;;;;5085016;28;20756;-86
2022/09/06 05:46:30;;;;;;;7.45;2.50;;;13.80;99.90;;;;;;5059316;28;20228;-86
2022/09/06 05:49:18;;;;;;;7.78;2.42;;;13.90;99.90;;;;;;5086194;28;20578;-86
2022/09/06 05:52:07;;;;;;;11.40;2.90;;;13.90;99.90;;;;;;5058963;28;20314;-86
2022/09/06 05:54:55;;;;;;;7.10;2.50;;;14.00;99.90;;;;;;5095803;28;20216;-86
2022/09/06 05:57:44;;;;;;;8.45;3.03;;;14.00;99.90;;;;;;5080161;28;20236;-86
2022/09/06 06:00:34;;;;;;;8.32;2.33;;;14.10;99.90;;;;;;5092516;28;20220;-86
2022/09/06 06:03:23;;;;;;;4.50;2.38;;;14.30;99.90;;;;;;5083180;28;20222;-87
2022/09/06 06:06:11;;;;;;;8.18;2.40;;;14.40;99.90;;;;;;5063777;28;20220;-85
2022/09/06 06:09:02;;;;;;;5.95;2.40;;;14.50;99.90;;;;;;5044948;28;20229;-86
2022/09/06 06:11:51;;;;;;;6.57;2.25;;;14.60;99.90;;;;;;5057826;28;20250;-88
2022/09/06 06:14:39;;;;;;;7.65;2.50;;;14.80;99.90;;;;;;5075778;28;20282;-87
2022/09/06 06:17:29;;;;;;;6.68;2.30;;;15.00;99.90;;;;;;5065461;28;20302;-86
2022/09/06 06:20:18;;;;;;;7.78;2.30;;;15.50;99.90;;;;;;5062233;28;20232;-87
2022/09/06 06:23:07;;;;;;;10.45;2.40;;;15.80;99.90;;;;;;5059994;28;20735;-84
2022/09/06 06:25:55;;;;;;;7.13;2.33;;;15.70;99.90;;;;;;5065816;28;20220;-89
2022/09/06 06:28:44;;;;;;;8.00;2.80;;;15.60;99.90;;;;;;5058542;28;20274;-86
2022/09/06 06:31:33;;;;;;;5.47;2.00;;;15.60;99.90;;;;;;5059121;28;20216;-84
2022/09/06 06:34:23;;;;;;;3.63;2.08;;;15.40;99.90;;;;;;5058411;28;20760;-83
2022/09/06 06:37:12;;;;;;;6.40;1.85;;;15.30;99.90;;;;;;5056609;28;20233;-86
2022/09/06 06:40:04;;;;;;;9.23;1.80;;;15.30;97.80;;;;;;5057435;28;20563;-79
2022/09/06 06:42:53;;;;;;;9.10;1.80;;;15.20;96.80;;;;;;5068813;28;20217;-79
2022/09/06 06:45:41;;;;;;;5.38;1.75;;;15.10;96.70;;;;;;5054816;28;20221;-80
2022/09/06 06:48:30;;;;;;;4.45;1.48;;;15.30;97.30;;;;;;5080423;28;20286;-80
2022/09/06 06:51:21;;;;;;;5.90;1.50;;;15.50;97.30;;;;;;5060827;28;20216;-80
2022/09/06 06:54:10;;;;;;;6.55;1.40;;;15.60;96.20;;;;;;5060388;28;20592;-79
2022/09/06 06:56:58;;;;;;;8.23;1.92;;;15.70;94.60;;;;;;5065807;28;20305;-91
2022/09/06 06:59:47;;;;;;;7.25;1.48;;;15.70;95.50;;;;;;5086604;28;20306;-90
2022/09/06 07:02:36;;;;;;;5.22;1.50;;;15.80;94.00;;;;;;5077151;28;20227;-80
2022/09/06 07:05:25;;;;;;;6.68;1.70;;;16.00;93.10;;;;;;5022765;28;20228;-80
2022/09/06 07:08:35;;;;;;;6.03;1.60;;;16.30;93.10;;;;;;5072166;28;20212;-79
2022/09/06 07:11:24;;;;;;;10.43;1.73;;;16.60;93.30;;;;;;5067501;28;20227;-81
2022/09/06 07:14:13;;;;;;;6.65;1.58;;;16.90;91.90;;;;;;5063037;28;20224;-79
2022/09/06 07:17:02;;;;;;;7.88;1.85;;;17.10;93.30;;;;;;5058863;28;20231;-80
2022/09/06 07:19:56;;;;;;;4.13;1.38;;;17.40;91.30;;;;;;5083217;28;20234;-81
2022/09/06 07:23:04;;;;;;;5.28;2.65;;;17.30;90.30;;;;;;5058319;28;20250;-80
2022/09/06 07:26:19;;;;;;;4.20;1.27;;;17.50;88.20;;;;;;5061156;28;20307;-80
2022/09/06 07:29:08;;;;;;;4.70;1.50;;;17.60;89.30;;;;;;5070222;28;20710;-80
2022/09/06 07:31:58;;;;;;;11.55;1.42;;;17.60;89.90;;;;;;5056730;28;20223;-80
2022/09/06 07:35:02;;;;;;;5.05;1.15;;;17.40;87.10;;;;;;5052627;28;20219;-80
2022/09/06 07:37:55;;;;;;;4.63;1.50;;;17.70;87.40;;;;;;5082965;28;20220;-80
2022/09/06 07:40:43;;;;;;;4.38;1.20;;;18.00;85.90;;;;;;5058950;28;20213;-80
2022/09/06 07:43:35;;;;;;;1.90;1.40;;;18.40;85.50;;;;;;5057972;28;21140;-79
2022/09/06 07:46:24;;;;;;;8.05;1.42;;;18.40;84.40;;;;;;5062098;28;20228;-81
2022/09/06 07:49:12;;;;;;;3.72;1.20;;;18.60;81.20;;;;;;5058544;28;20245;-90
2022/09/06 07:52:01;;;;;;;4.65;1.60;;;18.80;82.80;;;;;;5072296;28;20223;-89
2022/09/06 07:55:10;;;;;;;7.35;1.27;;;19.10;81.90;;;;;;5085904;28;20212;-89
2022/09/06 07:57:58;;;;;;;4.72;1.50;;;19.30;81.30;;;;;;5069886;28;20303;-87
2022/09/06 08:00:48;;;;;;;3.85;1.20;;;19.50;75.50;;;;;;5058018;28;20232;-78
2022/09/06 08:03:37;;;;;;;4.00;1.00;;;19.60;75.00;;;;;;5062119;28;20224;-78
2022/09/06 08:06:27;;;;;;;2.33;1.10;;;19.60;75.80;;;;;;5058096;28;20745;-77
2022/09/06 08:09:16;;;;;;;1.58;0.88;;;19.90;74.80;;;;;;5057931;28;20353;-77
2022/09/06 08:12:06;;;;;;;5.53;1.05;;;20.20;74.80;;;;;;5052140;28;20223;-82
2022/09/06 08:14:55;;;;;;;4.63;1.13;;;20.50;71.90;;;;;;5061104;28;20330;-77
2022/09/06 08:17:48;;;;;;;5.13;1.10;;;20.90;70.90;;;;;;5061752;28;20239;-78
2022/09/06 08:20:36;;;;;;;4.13;1.30;;;21.10;67.10;;;;;;5061631;28;20232;-78
2022/09/06 08:23:25;;;;;;;3.10;0.93;;;21.60;67.20;;;;;;5081444;28;20769;-78
2022/09/06 08:26:14;;;;;;;2.28;0.85;;;21.60;66.70;;;;;;5060137;28;20222;-77
2022/09/06 08:29:05;;;;;;;1.67;0.68;;;22.30;65.30;;;;;;5081123;28;20220;-78
2022/09/06 08:31:54;;;;;;;2.97;0.98;;;21.80;63.80;;;;;;5081851;27;20230;-78
2022/09/06 08:34:44;;;;;;;2.92;0.80;;;22.20;63.50;;;;;;5058315;28;20223;-78
2022/09/06 08:37:32;;;;;;;3.03;0.80;;;22.10;62.00;;;;;;5054897;28;20212;-78
2022/09/06 08:40:23;;;;;;;3.00;1.10;;;22.90;62.50;;;;;;5072244;28;20224;-78
2022/09/06 08:43:17;;;;;;;4.28;0.95;;;23.00;59.80;;;;;;5055565;28;20258;-78
2022/09/06 08:46:08;;;;;;;3.03;0.80;;;23.20;61.00;;;;;;5057377;28;20231;-77
2022/09/06 08:48:57;;;;;;;2.15;0.82;;;23.30;59.40;;;;;;5058513;28;20224;-78
2022/09/06 08:52:25;;;;;;;2.72;0.90;;;23.40;58.80;;;;;;5057268;28;20241;-78
2022/09/06 08:55:29;;;;;;;5.60;0.93;;;23.10;58.10;;;;;;5054089;28;20220;-78
2022/09/06 08:58:32;;;;;;;3.05;0.90;;;23.40;58.10;;;;;;5058446;28;20327;-79
2022/09/06 09:01:24;;;;;;;1.30;0.90;;;23.60;59.40;;;;;;5038803;28;20263;-78
2022/09/06 09:04:19;;;;;;;3.28;0.85;;;23.50;56.60;;;;;;5083672;28;20231;-78
2022/09/06 09:07:20;;;;;;;1.58;0.80;;;23.60;57.40;;;;;;5044447;28;20735;-79
2022/09/06 09:10:15;;;;;;;3.70;1.08;;;23.40;56.50;;;;;;5045149;28;20232;-78
2022/09/06 09:13:09;;;;;;;1.85;1.02;;;23.70;57.50;;;;;;5051976;28;20227;-77
2022/09/06 09:15:58;;;;;;;1.88;0.98;;;23.80;57.80;;;;;;5041602;28;20688;-78
2022/09/06 09:18:50;;;;;;;3.45;1.05;;;22.70;59.20;;;;;;5045274;28;20224;-78
2022/09/06 09:21:39;;;;;;;2.72;0.90;;;21.80;59.80;;;;;;5051583;28;20224;-78
2022/09/06 09:24:30;;;;;;;1.77;0.80;;;21.00;60.60;;;;;;5054275;28;20256;-78
2022/09/06 09:27:22;;;;;;;2.10;0.90;;;20.40;61.60;;;;;;5055653;28;20313;-77
2022/09/06 09:30:13;;;;;;;29.77;4.38;;;20.50;63.20;;;;;;5056648;28;20227;-78
2022/09/06 09:33:28;;;;;;;3.80;1.00;;;20.50;64.60;;;;;;5064895;28;20361;-77
2022/09/06 09:36:21;;;;;;;4.63;0.90;;;20.50;63.30;;;;;;5052120;28;20302;-77
2022/09/06 09:39:11;;;;;;;5.15;1.00;;;19.90;63.10;;;;;;5055932;28;20216;-77
2022/09/06 09:42:00;;;;;;;5.50;0.70;;;19.80;64.30;;;;;;5053521;28;20311;-77
2022/09/06 09:44:48;;;;;;;1.92;0.63;;;19.80;64.00;;;;;;5054723;28;20231;-77
2022/09/06 09:47:38;;;;;;;3.78;0.80;;;19.90;65.40;;;;;;5059619;28;20236;-78
2022/09/06 09:50:32;;;;;;;4.32;1.00;;;19.90;64.60;;;;;;5054176;28;20217;-78
2022/09/06 09:53:23;;;;;;;2.08;0.85;;;19.80;65.50;;;;;;5064403;28;20242;-77
2022/09/06 09:56:11;;;;;;;1.70;1.10;;;19.60;65.20;;;;;;5063166;28;20710;-78
2022/09/06 09:59:02;;;;;;;2.65;1.33;;;19.50;66.00;;;;;;5056018;28;20217;-77
2022/09/06 10:01:54;;;;;;;3.40;0.85;;;19.50;64.60;;;;;;5052563;28;20370;-77
2022/09/06 10:04:48;;;;;;;3.92;1.35;;;19.40;66.80;;;;;;5054764;28;20227;-78
2022/09/06 10:07:43;;;;;;;1.90;0.90;;;19.40;67.10;;;;;;5053887;28;20220;-78
2022/09/06 10:10:38;;;;;;;2.85;0.82;;;18.90;66.60;;;;;;5056985;28;20215;-78
2022/09/06 10:13:29;;;;;;;3.67;1.00;;;19.00;66.90;;;;;;5078156;28;20714;-78
2022/09/06 10:16:37;;;;;;;1.05;0.70;;;19.00;66.50;;;;;;5052124;28;20227;-78
2022/09/06 10:19:39;;;;;;;5.45;1.00;;;18.90;66.80;;;;;;5053026;28;20216;-79
2022/09/06 10:22:31;;;;;;;5.07;0.90;;;19.10;66.60;;;;;;5056467;28;20228;-86
2022/09/06 10:25:41;;;;;;;1.60;0.93;;;19.10;66.90;;;;;;5066551;28;20220;-79
2022/09/06 10:28:37;;;;;;;1.10;0.70;;;19.00;66.40;;;;;;5053127;28;20217;-79
2022/09/06 10:31:51;;;;;;;2.20;1.05;;;18.80;66.70;;;;;;5055996;28;20730;-80
2022/09/06 10:34:57;;;;;;;3.33;0.90;;;18.80;67.30;;;;;;5053923;28;20232;-80
2022/09/06 10:37:56;;;;;;;3.47;1.00;;;19.00;66.20;;;;;;5053281;28;20224;-80
2022/09/06 10:40:56;;;;;;;3.38;1.20;;;18.90;67.60;;;;;;5054866;28;20212;-80
2022/09/06 10:43:55;;;;;;;3.60;1.10;;;19.00;66.50;;;;;;5058114;28;20224;-79
2022/09/06 10:46:45;;;;;;;3.95;1.10;;;19.10;68.00;;;;;;5059648;28;20251;-80
2022/09/06 10:49:38;;;;;;;2.63;1.02;;;19.20;66.50;;;;;;5051711;28;20220;-80
2022/09/06 10:52:32;;;;;;;1.13;1.02;;;19.20;66.20;;;;;;5053665;28;20315;-80
2022/09/06 10:55:23;;;;;;;3.03;1.10;;;19.30;66.40;;;;;;5057556;28;20639;-81
2022/09/06 10:58:12;;;;;;;2.45;1.10;;;19.40;65.40;;;;;;5055298;28;20213;-81
2022/09/06 11:01:01;;;;;;;2.22;0.95;;;19.40;65.10;;;;;;5051058;28;20301;-80
2022/09/06 11:03:51;;;;;;;3.38;1.40;;;19.40;65.80;;;;;;5081815;28;20224;-82
2022/09/06 11:06:48;;;;;;;1.38;0.98;;;19.30;65.50;;;;;;5045342;28;20224;-81
2022/09/06 11:09:43;;;;;;;2.53;0.80;;;19.00;64.60;;;;;;5048964;28;20229;-80
2022/09/06 11:12:39;;;;;;;0.70;0.70;;;19.00;64.50;;;;;;5041173;28;20331;-80
2022/09/06 11:15:32;;;;;;;2.30;1.00;;;18.90;64.70;;;;;;5058674;28;20224;-80
2022/09/06 11:18:26;;;;;;;3.83;0.90;;;18.90;64.50;;;;;;5051008;28;20212;-80
2022/09/06 11:21:39;;;;;;;3.85;0.90;;;19.10;65.00;;;;;;5058848;28;20227;-81
2022/09/06 11:24:40;;;;;;;2.90;0.70;;;19.30;65.10;;;;;;5054295;28;20227;-80
2022/09/06 11:27:38;;;;;;;2.47;0.73;;;19.20;64.50;;;;;;5051201;28;20228;-81
2022/09/06 11:30:28;;;;;;;5.47;0.93;;;19.10;64.00;;;;;;5052901;28;20690;-81
2022/09/06 11:33:24;;;;;;;2.95;0.90;;;19.00;63.50;;;;;;5051438;28;20224;-80
2022/09/06 11:36:29;;;;;;;2.75;0.95;;;19.00;64.90;;;;;;5060334;28;20599;-80
2022/09/06 11:39:27;;;;;;;2.47;1.05;;;19.00;64.00;;;;;;5053448;28;20216;-81
2022/09/06 11:43:01;;;;;;;13.80;5.53;;;19.20;64.00;;;;;;5061990;28;20769;-80
2022/09/06 11:45:52;;;;;;;2.42;0.80;;;19.30;64.80;;;;;;5054732;28;20955;-81
2022/09/06 11:49:01;;;;;;;1.55;1.00;;;19.40;63.40;;;;;;5053649;28;20256;-80
2022/09/06 11:51:50;;;;;;;1.55;1.08;;;19.40;63.00;;;;;;5054606;28;20247;-80
2022/09/06 11:54:44;;;;;;;5.07;0.90;;;19.40;64.50;;;;;;5056057;28;20266;-79
2022/09/06 11:57:33;;;;;;;1.83;0.90;;;19.50;62.60;;;;;;5057960;28;20220;-83
2022/09/06 12:00:24;;;;;;;1.13;0.90;;;19.50;62.00;;;;;;5056074;28;20220;-85
2022/09/06 12:03:42;;;;;;;1.20;0.77;;;19.50;61.10;;;;;;5057461;28;20228;-84
2022/09/06 12:07:08;;;;;;;4.90;1.40;;;19.40;61.20;;;;;;5052026;28;20231;-85
2022/09/06 12:09:57;;;;;;;2.25;0.80;;;19.50;61.30;;;;;;5056775;28;20226;-86
2022/09/06 12:12:51;;;;;;;4.22;0.80;;;19.40;61.50;;;;;;5070525;28;20242;-85
2022/09/06 12:15:46;;;;;;;1.70;0.73;;;19.20;61.20;;;;;;5067065;28;20313;-85
2022/09/06 12:19:00;;;;;;;2.10;0.80;;;19.20;61.00;;;;;;5050635;28;20221;-85
2022/09/06 12:21:51;;;;;;;2.15;0.90;;;19.20;61.00;;;;;;5055890;28;20232;-85
2022/09/06 12:24:55;;;;;;;1.13;0.70;;;19.30;61.10;;;;;;5061071;28;20270;-85
2022/09/06 12:27:53;;;;;;;1.85;0.80;;;19.30;61.20;;;;;;5060672;28;20227;-85
2022/09/06 12:30:53;;;;;;;1.15;0.70;;;19.20;60.40;;;;;;5076541;28;20224;-85
2022/09/06 12:33:43;;;;;;;3.30;0.73;;;19.10;61.10;;;;;;5061155;28;20211;-85
2022/09/06 12:36:32;;;;;;;2.65;0.90;;;19.10;59.90;;;;;;5070872;28;20303;-85
2022/09/06 12:39:21;;;;;;;3.35;0.80;;;19.30;60.10;;;;;;5066499;28;20215;-86
2022/09/06 12:42:12;;;;;;;1.35;0.90;;;19.20;59.60;;;;;;5070347;28;20252;-84
2022/09/06 12:45:04;;;;;;;1.45;0.80;;;19.10;59.50;;;;;;5079248;28;20224;-85
2022/09/06 12:48:09;;;;;;;0.80;0.70;;;19.00;59.90;;;;;;5069244;28;20224;-85
2022/09/06 12:51:02;;;;;;;5.38;0.73;;;19.10;59.40;;;;;;5060449;28;20223;-86
2022/09/06 12:53:51;;;;;;;2.03;0.88;;;19.10;59.50;;;;;;5060128;28;20220;-84
2022/09/06 12:56:40;;;;;;;2.78;1.05;;;19.10;59.90;;;;;;5060452;28;20229;-84
2022/09/06 12:59:28;;;;;;;3.55;0.95;;;19.30;60.40;;;;;;5061379;28;20232;-84
2022/09/06 13:02:21;;;;;;;1.85;0.60;;;19.20;59.40;;;;;;5051366;28;20580;-85
2022/09/06 13:05:13;;;;;;;1.25;0.80;;;19.20;59.30;;;;;;5054878;28;20235;-84
2022/09/06 13:08:03;;;;;;;3.65;0.68;;;19.20;59.40;;;;;;5061114;28;20227;-85
2022/09/06 13:10:52;;;;;;;1.50;1.00;;;19.10;59.50;;;;;;5063050;28;20254;-85
2022/09/06 13:13:47;;;;;;;0.70;0.70;;;19.10;60.10;;;;;;5060381;28;20367;-84
2022/09/06 13:16:37;;;;;;;2.30;1.05;;;19.10;59.60;;;;;;5060259;28;20761;-85
2022/09/06 13:19:32;;;;;;;3.63;0.95;;;19.10;60.00;;;;;;5057212;28;20618;-85
2022/09/06 13:22:43;;;;;;;1.10;0.70;;;19.10;60.00;;;;;;5057818;28;20766;-86
2022/09/06 13:25:32;;;;;;;1.10;0.70;;;19.10;59.50;;;;;;5051848;28;20220;-85
2022/09/06 13:28:25;;;;;;;1.92;0.70;;;19.20;60.40;;;;;;5059093;28;20227;-85
2022/09/06 13:31:21;;;;;;;3.90;0.90;;;19.20;59.90;;;;;;5056190;28;20579;-85
2022/09/06 13:34:09;;;;;;;3.10;0.70;;;19.20;59.80;;;;;;5061955;28;20227;-85
2022/09/06 13:37:02;;;;;;;1.02;0.60;;;19.10;60.10;;;;;;5040139;28;20224;-86
2022/09/06 13:39:52;;;;;;;1.88;1.00;;;19.20;59.90;;;;;;5052068;28;20221;-86
2022/09/06 13:42:41;;;;;;;1.48;0.73;;;19.10;59.70;;;;;;5053801;28;20225;-85
2022/09/06 13:45:32;;;;;;;4.13;1.80;;;19.00;59.90;;;;;;5057051;28;20216;-84
2022/09/06 13:48:21;;;;;;;2.40;0.90;;;19.10;60.20;;;;;;5085435;28;20228;-85
2022/09/06 13:51:17;;;;;;;2.42;0.70;;;19.10;59.60;;;;;;5057086;28;20224;-85
2022/09/06 13:54:07;;;;;;;2.75;1.55;;;19.10;59.40;;;;;;5056561;28;20231;-86
2022/09/06 13:56:57;;;;;;;4.25;1.10;;;19.10;59.50;;;;;;5052122;28;20228;-84
2022/09/06 13:59:45;;;;;;;0.75;0.73;;;19.20;59.00;;;;;;5057008;28;20224;-85
2022/09/06 14:02:34;;;;;;;0.85;0.70;;;19.20;59.30;;;;;;5055562;28;20228;-85
2022/09/06 14:05:23;;;;;;;3.35;0.80;;;19.20;59.50;;;;;;5053914;28;20220;-85
2022/09/06 14:08:11;;;;;;;1.10;0.73;;;19.20;59.60;;;;;;5056968;28;20236;-85
2022/09/06 14:11:00;;;;;;;1.15;0.70;;;19.10;60.20;;;;;;5055176;28;20224;-85
2022/09/06 14:13:50;;;;;;;2.40;0.75;;;19.10;59.90;;;;;;5055255;28;20216;-85
2022/09/06 14:16:39;;;;;;;1.48;0.80;;;19.20;60.40;;;;;;5060288;28;20235;-85
2022/09/06 14:19:28;;;;;;;4.28;0.70;;;19.20;60.30;;;;;;5054303;28;20224;-86
2022/09/06 14:22:16;;;;;;;2.45;0.70;;;19.20;59.80;;;;;;5056191;28;20228;-85
2022/09/06 14:25:06;;;;;;;1.90;0.88;;;19.10;59.80;;;;;;5059464;28;20594;-85
2022/09/06 14:27:55;;;;;;;1.35;0.77;;;19.10;59.90;;;;;;5057757;28;20311;-85
2022/09/06 14:30:44;;;;;;;6.75;0.80;;;19.00;61.20;;;;;;5066107;28;20211;-84
2022/09/06 14:33:33;;;;;;;3.28;1.50;;;19.00;59.90;;;;;;5058170;28;20311;-85
2022/09/06 14:36:28;;;;;;;2.20;0.80;;;19.00;60.80;;;;;;5056739;28;20224;-86
2022/09/06 14:39:16;;;;;;;2.03;0.80;;;19.00;60.10;;;;;;5039397;28;20232;-76
2022/09/06 14:42:05;;;;;;;2.88;0.88;;;19.00;59.90;;;;;;5027217;28;20565;-74
2022/09/06 14:44:54;;;;;;;2.28;0.70;;;19.00;59.40;;;;;;5048344;28;20224;-74
2022/09/06 14:47:44;;;;;;;2.50;0.60;;;18.90;59.50;;;;;;5042785;28;20590;-74
2022/09/06 14:50:33;;;;;;;1.13;0.80;;;18.90;60.00;;;;;;5035611;28;20658;-75
2022/09/06 14:53:21;;;;;;;2.75;0.85;;;19.00;59.50;;;;;;5056991;28;20334;-74
2022/09/06 14:56:29;;;;;;;1.15;0.73;;;19.10;59.60;;;;;;5068007;28;20276;-74